createdAt,value
2022-12-18T00:03:45.766Z,-8.84
2022-12-18T00:08:50.968Z,-8.90
2022-12-18T00:13:56.934Z,-9.07
2022-12-18T00:18:59.923Z,-9.26
2022-12-18T00:24:02.835Z,-9.03
2022-12-18T00:29:09.538Z,-9.29
2022-12-18T00:34:13.874Z,-9.35
2022-12-18T00:39:16.747Z,-9.19
2022-12-18T00:44:22.630Z,-9.30
2022-12-18T00:49:25.529Z,-9.27
2022-12-18T00:54:28.784Z,-9.67
2022-12-18T00:59:33.132Z,-9.47
2022-12-18T01:04:36.818Z,-9.37
2022-12-18T01:09:39.704Z,-9.64
2022-12-18T01:14:44.038Z,-9.40
2022-12-18T01:19:47.360Z,-9.45
2022-12-18T01:24:50.440Z,-9.50
2022-12-18T01:29:54.828Z,-9.66
2022-12-18T01:34:57.794Z,-9.71
2022-12-18T01:40:00.738Z,-9.61
2022-12-18T01:45:21.713Z,-9.83
2022-12-18T01:50:27.395Z,-10.01
2022-12-18T01:55:33.588Z,-9.72
2022-12-18T02:00:38.461Z,-9.87
2022-12-18T02:05:49.140Z,-9.76
2022-12-18T02:11:03.570Z,-9.70
2022-12-18T02:16:17.317Z,-10.07
2022-12-18T02:21:30.792Z,-10.00
2022-12-18T02:26:39.004Z,-10.13
2022-12-18T02:31:47.434Z,-10.05
2022-12-18T02:36:53.252Z,-10.09
2022-12-18T02:41:59.671Z,-9.98
2022-12-18T02:47:02.922Z,-10.44
2022-12-18T02:52:15.777Z,-10.23
2022-12-18T02:57:24.996Z,-10.12
2022-12-18T03:02:35.964Z,-10.21
2022-12-18T03:07:43.632Z,-10.02
2022-12-18T03:12:56.664Z,-10.03
2022-12-18T03:18:05.047Z,-10.07
2022-12-18T03:23:14.221Z,-10.10
2022-12-18T03:28:25.081Z,-10.32
2022-12-18T03:33:41.754Z,-10.28
2022-12-18T03:38:45.119Z,-10.49
2022-12-18T03:43:54.842Z,-10.45
2022-12-18T03:49:04.295Z,-10.31
2022-12-18T03:54:12.021Z,-10.48
2022-12-18T03:59:25.808Z,-10.64
2022-12-18T04:04:31.453Z,-10.83
2022-12-18T04:09:41.010Z,-10.52
2022-12-18T04:14:46.726Z,-10.77
2022-12-18T04:19:50.346Z,-10.79
2022-12-18T04:24:53.571Z,-10.59
2022-12-18T04:30:09.131Z,-10.78
2022-12-18T04:35:12.923Z,-10.91
2022-12-18T04:40:20.945Z,-10.69
2022-12-18T04:45:26.435Z,-10.79
2022-12-18T04:50:30.026Z,-10.75
2022-12-18T04:55:32.913Z,-10.75
2022-12-18T05:00:37.432Z,-10.99
2022-12-18T05:05:40.348Z,-10.94
2022-12-18T05:10:43.198Z,-10.87
2022-12-18T05:15:53.657Z,-10.95
2022-12-18T05:20:56.869Z,-10.98
2022-12-18T05:26:01.551Z,-10.97
2022-12-18T05:31:07.139Z,-10.98
2022-12-18T05:36:12.285Z,-11.11
2022-12-18T05:41:15.189Z,-11.15
2022-12-18T05:46:20.135Z,-11.01
2022-12-18T05:51:24.372Z,-11.14
2022-12-18T05:56:27.328Z,-11.21
2022-12-18T06:01:31.675Z,-11.07
2022-12-18T06:06:35.418Z,-11.20
2022-12-18T06:11:39.675Z,-11.34
2022-12-18T06:16:43.907Z,-11.21
2022-12-18T06:21:46.821Z,-11.26
2022-12-18T06:26:49.696Z,-11.63
2022-12-18T06:31:54.008Z,-11.40
2022-12-18T06:36:57.047Z,-11.44
2022-12-18T06:41:59.952Z,-11.54
2022-12-18T06:47:04.567Z,-11.67
2022-12-18T06:52:07.448Z,-11.92
2022-12-18T06:57:10.481Z,-11.72
2022-12-18T07:02:15.193Z,-11.61
2022-12-18T07:07:18.369Z,-11.35
2022-12-18T07:12:21.257Z,-11.56
2022-12-18T07:17:25.495Z,-11.42
2022-12-18T07:22:28.459Z,-11.57
2022-12-18T07:27:31.481Z,-11.41
2022-12-18T07:32:35.727Z,-11.39
2022-12-18T07:37:38.648Z,-11.75
2022-12-18T07:42:41.539Z,-11.36
2022-12-18T07:47:47.420Z,-11.73
2022-12-18T07:52:50.503Z,-11.29
2022-12-18T07:57:57.629Z,-11.36
2022-12-18T08:03:03.874Z,-11.05
2022-12-18T08:08:07.213Z,-10.90
2022-12-18T08:13:10.120Z,-10.99
2022-12-18T08:18:14.688Z,-11.17
2022-12-18T08:23:17.632Z,-10.89
2022-12-18T08:28:20.638Z,-10.78
2022-12-18T08:33:25.434Z,-10.52
2022-12-18T08:38:28.330Z,-10.36
2022-12-18T08:43:49.235Z,-10.38
2022-12-18T08:48:55.021Z,-10.26
2022-12-18T08:53:57.921Z,-10.28
2022-12-18T08:59:00.828Z,-10.07
2022-12-18T09:04:06.170Z,-9.90
2022-12-18T09:09:12.048Z,-9.78
2022-12-18T09:14:15.007Z,-9.85
2022-12-18T09:19:19.271Z,-9.57
2022-12-18T09:24:22.144Z,-9.62
2022-12-18T09:29:25.093Z,-9.76
2022-12-18T09:34:29.346Z,-9.35
2022-12-18T09:39:33.323Z,-8.95
2022-12-18T09:44:45.157Z,-8.64
2022-12-18T09:49:53.090Z,-8.43
2022-12-18T09:55:01.365Z,-8.26
2022-12-18T10:00:10.908Z,-7.88
2022-12-18T10:05:27.895Z,-7.69
2022-12-18T10:10:40.474Z,-7.91
2022-12-18T10:15:53.965Z,-7.61
2022-12-18T10:21:05.788Z,-7.64
2022-12-18T10:26:13.607Z,-7.40
2022-12-18T10:31:19.640Z,-7.00
2022-12-18T10:36:25.661Z,-7.01
2022-12-18T10:41:31.862Z,-6.64
2022-12-18T10:46:34.869Z,-6.31
2022-12-18T10:51:39.850Z,-6.39
2022-12-18T10:56:43.895Z,-6.06
2022-12-18T11:01:50.287Z,-5.89
2022-12-18T11:07:00.431Z,-6.15
2022-12-18T11:12:07.187Z,-5.72
2022-12-18T11:17:25.912Z,-6.07
2022-12-18T11:22:32.736Z,-5.62
2022-12-18T11:27:35.766Z,-5.39
2022-12-18T11:32:41.537Z,-5.55
2022-12-18T11:37:51.386Z,-5.80
2022-12-18T11:43:01.746Z,-5.66
2022-12-18T11:48:14.884Z,-5.60
2022-12-18T11:53:20.063Z,-5.50
2022-12-18T11:58:35.140Z,-5.45
2022-12-18T12:04:05.221Z,-5.47
2022-12-18T12:09:17.469Z,-5.40
2022-12-18T12:14:46.455Z,-5.40
2022-12-18T12:19:57.203Z,-5.23
2022-12-18T12:25:16.152Z,-5.44
2022-12-18T12:30:23.256Z,-5.29
2022-12-18T12:35:44.789Z,-5.34
2022-12-18T12:41:02.223Z,-5.31
2022-12-18T12:46:07.767Z,-5.43
2022-12-18T12:51:17.241Z,-5.50
2022-12-18T12:56:23.323Z,-5.12
2022-12-18T13:01:36.929Z,-4.84
2022-12-18T13:06:46.994Z,-4.66
2022-12-18T13:12:09.196Z,-4.59
2022-12-18T13:17:30.236Z,-4.71
2022-12-18T13:22:37.059Z,-4.72
2022-12-18T13:28:02.538Z,-4.99
2022-12-18T13:33:50.785Z,-4.92
2022-12-18T13:44:50.407Z,-5.18
2022-12-18T13:49:54.715Z,-5.06
2022-12-18T13:55:00.617Z,-4.76
2022-12-18T14:00:26.944Z,-4.72
2022-12-18T14:05:31.959Z,-4.84
2022-12-18T14:10:47.873Z,-4.84
2022-12-18T14:15:54.012Z,-4.86
2022-12-18T14:21:01.042Z,-4.96
2022-12-18T14:26:21.119Z,-5.03
2022-12-18T14:31:29.114Z,-5.07
2022-12-18T14:36:32.117Z,-5.13
2022-12-18T14:41:35.132Z,-5.36
2022-12-18T14:46:41.108Z,-5.45
2022-12-18T14:51:50.569Z,-5.44
2022-12-18T14:56:58.467Z,-5.52
2022-12-18T15:02:07.338Z,-5.53
2022-12-18T15:07:15.039Z,-5.63
2022-12-18T15:12:28.187Z,-5.71
2022-12-18T15:17:32.775Z,-5.91
2022-12-18T15:22:37.902Z,-5.91
2022-12-18T15:27:40.955Z,-6.04
2022-12-18T15:32:45.742Z,-6.17
2022-12-18T15:37:48.845Z,-6.31
2022-12-18T15:43:13.449Z,-6.52
2022-12-18T15:48:23.249Z,-6.61
2022-12-18T15:53:27.614Z,-6.52
2022-12-18T15:58:30.563Z,-6.46
2022-12-18T16:03:34.955Z,-6.93
2022-12-18T16:08:37.947Z,-6.83
2022-12-18T16:13:43.951Z,-6.88
2022-12-18T16:18:48.255Z,-6.88
2022-12-18T16:23:51.257Z,-6.98
2022-12-18T16:28:54.217Z,-7.00
2022-12-18T16:39:28.559Z,-7.18
2022-12-18T16:44:31.496Z,-7.23
2022-12-18T16:49:34.784Z,-7.24
2022-12-18T16:54:39.197Z,-7.04
2022-12-18T16:59:42.363Z,-7.01
2022-12-18T17:04:46.368Z,-7.16
2022-12-18T17:09:51.304Z,-7.02
2022-12-18T17:14:54.335Z,-7.28
2022-12-18T17:19:57.333Z,-7.19
2022-12-18T17:25:01.713Z,-7.33
2022-12-18T17:30:05.248Z,-7.35
2022-12-18T17:35:08.932Z,-7.27
2022-12-18T17:40:13.359Z,-7.32
2022-12-18T17:45:16.289Z,-7.43
2022-12-18T17:50:19.579Z,-7.25
2022-12-18T17:55:24.007Z,-7.24
2022-12-18T18:00:27.222Z,-7.38
2022-12-18T18:05:30.266Z,-7.32
2022-12-18T18:10:38.249Z,-7.40
2022-12-18T18:15:41.165Z,-7.24
2022-12-18T18:20:44.118Z,-7.17
2022-12-18T18:25:48.823Z,-7.31
2022-12-18T18:30:53.361Z,-7.27
2022-12-18T18:35:56.298Z,-7.47
2022-12-18T18:41:01.603Z,-7.18
2022-12-18T18:46:06.186Z,-7.09
2022-12-18T18:51:12.033Z,-7.34
2022-12-18T19:01:45.062Z,-7.16
2022-12-18T19:06:49.081Z,-7.20
2022-12-18T19:12:11.191Z,-7.84
2022-12-18T19:17:14.549Z,-7.48
2022-12-18T19:22:18.325Z,-7.38
2022-12-18T19:27:23.796Z,-7.26
2022-12-18T19:32:26.705Z,-7.18
2022-12-18T19:37:29.687Z,-7.15
2022-12-18T19:42:35.693Z,-7.12
2022-12-18T19:47:38.693Z,-7.32
2022-12-18T19:52:41.683Z,-7.05
2022-12-18T19:57:46.389Z,-7.23
2022-12-18T20:02:49.395Z,-6.92
2022-12-18T20:07:53.206Z,-6.80
2022-12-18T20:12:57.494Z,-6.87
2022-12-18T20:18:01.282Z,-6.73
2022-12-18T20:23:05.031Z,-6.69
2022-12-18T20:28:09.333Z,-6.57
2022-12-18T20:33:12.321Z,-6.72
2022-12-18T20:38:15.221Z,-6.28
2022-12-18T20:43:20.523Z,-5.99
2022-12-18T20:48:26.623Z,-6.16
2022-12-18T20:53:29.909Z,-6.30
2022-12-18T20:58:34.535Z,-6.34
2022-12-18T21:03:38.248Z,-6.19
2022-12-18T21:08:41.223Z,-6.17
2022-12-18T21:13:45.526Z,-6.21
2022-12-18T21:18:48.563Z,-6.26
2022-12-18T21:23:51.981Z,-6.12
2022-12-18T21:28:57.643Z,-6.19
2022-12-18T21:34:02.020Z,-6.07
2022-12-18T21:39:05.482Z,-6.00
2022-12-18T21:44:12.298Z,-5.95
2022-12-18T21:49:17.659Z,-5.87
2022-12-18T21:54:21.390Z,-5.76
2022-12-18T21:59:27.237Z,-5.84
2022-12-18T22:04:30.570Z,-5.90
2022-12-18T22:09:34.196Z,-5.78
2022-12-18T22:14:38.538Z,-5.71
2022-12-18T22:19:43.240Z,-5.36
2022-12-18T22:24:46.820Z,-5.02
2022-12-18T22:30:06.123Z,-4.38
2022-12-18T22:35:15.626Z,-4.29
2022-12-18T22:40:23.840Z,-4.31
2022-12-18T22:45:29.572Z,-3.96
2022-12-18T22:50:33.805Z,-3.85
2022-12-18T22:55:36.726Z,-3.76
2022-12-18T23:00:41.361Z,-3.66
2022-12-18T23:05:44.977Z,-3.65
2022-12-18T23:10:47.869Z,-3.43
2022-12-18T23:15:52.199Z,-3.32
2022-12-18T23:20:55.217Z,-3.24
2022-12-18T23:26:02.506Z,-3.36
2022-12-18T23:31:09.837Z,-3.36
2022-12-18T23:36:13.704Z,-3.39
2022-12-18T23:41:18.485Z,-3.36
2022-12-18T23:46:26.266Z,-3.37
2022-12-18T23:51:30.188Z,-3.41
2022-12-18T23:56:35.688Z,-3.44
